Time;durP1;ratioP1;P1;durP2;ratioP2;P2;SDS_P1;SDS_P2;PMS_P1;PMS_P2;Temp;Humidity;BMP_temperature;BMP_pressure;BME280_temperature;BME280_humidity;BME280_pressure;Samples;Min_cycle;Max_cycle;Signal;HPM_P1;HPM_P2
2022/01/23 00:01:45;;;;;;;79.63;47.53;;;5.50;83.50;;;;;;5023647;28;20361;-79
2022/01/23 00:04:10;;;;;;;75.72;45.85;;;5.50;83.40;;;;;;5031987;28;20493;-81
2022/01/23 00:06:36;;;;;;;67.20;38.97;;;5.40;83.60;;;;;;5011549;28;20054;-81
2022/01/23 00:09:02;;;;;;;65.88;39.03;;;5.50;83.60;;;;;;5013363;28;20037;-81
2022/01/23 00:11:30;;;;;;;59.72;35.97;;;5.50;83.40;;;;;;5031752;28;20037;-81
2022/01/23 00:19:12;;;;;;;62.92;37.03;;;5.60;83.00;;;;;;5031677;28;20103;-81
2022/01/23 00:21:39;;;;;;;64.75;36.85;;;5.60;82.90;;;;;;5014476;28;20065;-81
2022/01/23 00:32:03;;;;;;;58.40;34.33;;;5.60;83.00;;;;;;5028929;28;20425;-81
2022/01/23 00:34:28;;;;;;;63.72;36.72;;;5.60;83.20;;;;;;5030169;28;20033;-82
2022/01/23 00:36:54;;;;;;;59.25;35.13;;;5.70;83.00;;;;;;5031758;28;20564;-82
2022/01/23 00:39:19;;;;;;;62.22;37.35;;;5.60;83.10;;;;;;5028245;28;20116;-79
2022/01/23 00:41:45;;;;;;;64.07;36.47;;;5.70;83.10;;;;;;5030407;28;20029;-79
2022/01/23 00:44:11;;;;;;;61.83;37.33;;;5.70;83.10;;;;;;5014577;28;20036;-79
2022/01/23 00:46:39;;;;;;;64.45;37.45;;;5.60;83.20;;;;;;5014611;28;20540;-79
2022/01/23 00:51:37;;;;;;;71.75;40.10;;;5.60;83.20;;;;;;5031084;28;20477;-79
2022/01/23 00:54:06;;;;;;;58.60;34.65;;;5.60;83.10;;;;;;5026049;28;20026;-79
2022/01/23 00:56:32;;;;;;;63.80;35.85;;;5.60;83.00;;;;;;5030742;28;20087;-81
2022/01/23 00:58:59;;;;;;;64.65;38.95;;;5.60;83.60;;;;;;5035710;28;20477;-81
2022/01/23 01:01:25;;;;;;;68.10;39.30;;;5.50;84.00;;;;;;5034536;28;20555;-81
2022/01/23 01:03:50;;;;;;;106.40;58.35;;;5.50;83.80;;;;;;5034537;28;20121;-81
2022/01/23 01:06:17;;;;;;;75.43;44.05;;;5.40;83.80;;;;;;5035423;28;20175;-81
2022/01/23 01:08:43;;;;;;;75.25;39.35;;;5.40;84.10;;;;;;5035586;28;20026;-79
2022/01/23 01:14:20;;;;;;;64.10;37.72;;;5.40;84.20;;;;;;5034394;28;20087;-80
2022/01/23 01:30:57;;;;;;;83.82;48.58;;;5.00;84.80;;;;;;5034769;28;20048;-80
2022/01/23 01:35:27;;;;;;;72.68;44.33;;;5.00;84.20;;;;;;5034049;28;20037;-81
2022/01/23 01:37:53;;;;;;;68.93;42.17;;;5.00;84.20;;;;;;5011758;28;20055;-79
2022/01/23 01:40:20;;;;;;;85.28;50.72;;;5.00;84.30;;;;;;5034031;28;20366;-79
2022/01/23 01:42:46;;;;;;;72.78;45.15;;;5.00;83.90;;;;;;5017134;28;20088;-80
2022/01/23 01:45:13;;;;;;;72.28;43.10;;;4.80;84.20;;;;;;5033123;28;20033;-81
2022/01/23 01:47:51;;;;;;;65.80;39.85;;;4.80;84.60;;;;;;5016661;28;20034;-81
2022/01/23 01:50:16;;;;;;;56.63;34.97;;;4.90;84.40;;;;;;5034406;28;20489;-80
2022/01/23 01:52:42;;;;;;;91.47;54.78;;;4.90;84.20;;;;;;5016879;28;20034;-80
2022/01/23 01:55:12;;;;;;;82.53;47.10;;;4.90;83.50;;;;;;5033511;28;20059;-80
2022/01/23 01:57:44;;;;;;;74.43;44.30;;;4.90;83.90;;;;;;5014524;28;20068;-80
2022/01/23 02:00:40;;;;;;;69.95;41.95;;;4.90;83.70;;;;;;5033931;28;20416;-80
2022/01/23 02:08:31;;;;;;;70.28;41.63;;;4.70;84.60;;;;;;5034097;28;20091;-77
2022/01/23 02:11:15;;;;;;;75.47;45.20;;;4.70;84.90;;;;;;5033834;28;20033;-79
2022/01/23 02:16:43;;;;;;;96.82;59.00;;;4.70;83.80;;;;;;5034199;28;20039;-81
2022/01/23 02:25:00;;;;;;;105.32;62.35;;;4.20;84.20;;;;;;5028585;28;20048;-79
2022/01/23 02:55:13;;;;;;;57.78;34.67;;;3.90;84.10;;;;;;4969928;28;20126;-80
2022/01/23 03:00:18;;;;;;;56.03;33.78;;;4.10;83.30;;;;;;5029840;28;20759;-80
2022/01/23 03:02:47;;;;;;;70.30;40.75;;;4.20;82.80;;;;;;5030053;28;20076;-80
2022/01/23 03:05:23;;;;;;;71.65;40.00;;;4.10;82.70;;;;;;5025819;28;20160;-80
2022/01/23 03:11:01;;;;;;;55.88;33.67;;;4.00;82.90;;;;;;4991484;28;20489;-82
2022/01/23 03:24:40;;;;;;;47.75;29.38;;;4.20;83.10;;;;;;5028747;28;20044;-80
2022/01/23 03:32:44;;;;;;;60.08;36.72;;;4.30;82.70;;;;;;5030095;28;20108;-81
2022/01/23 03:35:06;;;;;;;58.83;31.80;;;4.20;84.10;;;;;;5031701;28;20061;-81
2022/01/23 03:37:32;;;;;;;52.10;32.42;;;4.30;83.20;;;;;;5028514;28;20132;-80
2022/01/23 03:39:58;;;;;;;46.83;28.77;;;4.30;82.80;;;;;;5021767;28;20042;-81
2022/01/23 03:42:25;;;;;;;55.15;31.80;;;4.40;83.30;;;;;;5031429;28;20099;-81
2022/01/23 03:47:40;;;;;;;84.22;51.10;;;4.50;82.10;;;;;;5023024;28;20040;-80
2022/01/23 03:50:11;;;;;;;59.42;35.50;;;4.30;82.40;;;;;;5023199;28;20040;-80
2022/01/23 03:52:38;;;;;;;70.43;41.70;;;4.30;83.20;;;;;;5023803;28;20038;-81
2022/01/23 03:55:06;;;;;;;57.78;34.40;;;4.30;83.00;;;;;;5028785;28;20061;-81
2022/01/23 03:57:32;;;;;;;54.58;32.15;;;4.20;83.70;;;;;;5011842;28;20033;-80
2022/01/23 03:59:58;;;;;;;60.13;36.25;;;4.20;83.40;;;;;;5032101;28;20037;-80
2022/01/23 04:02:24;;;;;;;51.13;30.65;;;4.30;83.10;;;;;;5008039;28;20040;-81
2022/01/23 04:04:50;;;;;;;52.42;31.52;;;4.30;82.90;;;;;;5031781;28;20466;-81
2022/01/23 04:07:23;;;;;;;47.53;29.23;;;4.30;82.60;;;;;;5030584;28;20100;-80
2022/01/23 04:09:50;;;;;;;49.78;30.65;;;4.40;82.40;;;;;;5026717;28;20037;-80
2022/01/23 04:15:01;;;;;;;48.58;30.08;;;4.40;82.30;;;;;;5024592;28;20478;-81
2022/01/23 05:00:13;;;;;;;57.05;35.88;;;4.50;84.10;;;;;;5029527;28;20094;-76
2022/01/23 05:05:08;;;;;;;75.32;46.55;;;4.50;84.30;;;;;;5028112;28;20033;-77
2022/01/23 05:07:34;;;;;;;55.95;33.85;;;4.50;84.60;;;;;;5032563;28;20034;-77
2022/01/23 05:10:00;;;;;;;51.08;30.75;;;4.40;85.10;;;;;;5034076;28;20029;-78
2022/01/23 05:12:29;;;;;;;57.72;34.20;;;4.50;85.00;;;;;;5029290;28;20038;-79
2022/01/23 05:14:56;;;;;;;54.10;30.27;;;4.50;84.60;;;;;;5030979;28;20045;-80
2022/01/23 05:17:22;;;;;;;54.55;33.40;;;4.60;84.60;;;;;;5012698;28;20056;-81
2022/01/23 05:19:48;;;;;;;62.67;37.88;;;4.60;84.10;;;;;;5032545;28;20033;-79
2022/01/23 05:25:18;;;;;;;47.22;29.58;;;4.60;84.10;;;;;;5030864;28;20182;-80
2022/01/23 05:27:45;;;;;;;53.85;32.20;;;4.50;83.90;;;;;;5033742;28;20090;-81
2022/01/23 05:30:11;;;;;;;49.67;31.08;;;4.60;83.60;;;;;;5031035;28;20328;-82
2022/01/23 05:32:41;;;;;;;61.97;37.50;;;4.50;83.60;;;;;;5033912;28;20049;-82
2022/01/23 05:35:09;;;;;;;43.92;28.13;;;4.50;83.70;;;;;;5029116;28;20069;-82
2022/01/23 05:37:37;;;;;;;43.50;27.20;;;4.60;83.80;;;;;;5033107;28;20069;-82
2022/01/23 05:40:05;;;;;;;53.53;32.60;;;4.60;83.50;;;;;;5030236;28;20033;-82
2022/01/23 05:42:30;;;;;;;51.55;29.90;;;4.60;83.10;;;;;;5015707;28;20490;-82
2022/01/23 05:44:56;;;;;;;53.47;33.05;;;4.60;83.20;;;;;;5033288;28;20041;-82
2022/01/23 05:47:22;;;;;;;48.78;30.40;;;4.50;83.20;;;;;;5031213;28;20030;-82
2022/01/23 05:49:48;;;;;;;55.05;31.00;;;4.60;82.70;;;;;;5023851;28;20117;-81
2022/01/23 05:52:14;;;;;;;49.40;31.52;;;4.60;82.40;;;;;;5031761;28;20045;-82
2022/01/23 05:54:39;;;;;;;44.40;26.67;;;4.50;82.80;;;;;;5034146;28;20048;-82
2022/01/23 05:57:05;;;;;;;39.30;25.60;;;4.50;82.90;;;;;;5032883;28;20119;-82
2022/01/23 05:59:31;;;;;;;38.35;23.85;;;4.60;82.70;;;;;;5016532;28;20045;-80
2022/01/23 06:01:57;;;;;;;42.45;25.95;;;4.70;82.20;;;;;;5033260;28;20564;-81
2022/01/23 06:04:26;;;;;;;43.60;26.00;;;4.70;81.90;;;;;;5033129;28;20045;-82
2022/01/23 06:06:58;;;;;;;45.28;29.80;;;4.70;82.00;;;;;;5033005;28;20458;-82
2022/01/23 06:09:24;;;;;;;54.97;36.35;;;4.70;81.40;;;;;;5033520;28;20068;-82
2022/01/23 06:11:51;;;;;;;48.40;31.17;;;4.60;81.70;;;;;;5016464;28;20049;-82
2022/01/23 06:14:17;;;;;;;45.20;28.20;;;4.40;81.90;;;;;;5014452;28;20095;-81
2022/01/23 06:16:43;;;;;;;37.95;23.30;;;4.40;82.10;;;;;;5031404;28;20145;-82
2022/01/23 06:19:09;;;;;;;41.42;24.20;;;4.40;82.20;;;;;;5030975;28;20493;-82
2022/01/23 06:21:35;;;;;;;39.22;23.98;;;4.50;81.70;;;;;;5032053;28;20041;-82
2022/01/23 06:26:42;;;;;;;39.95;25.33;;;4.50;81.10;;;;;;5030357;28;20033;-82
2022/01/23 06:29:08;;;;;;;;;;;4.50;81.80;;;;;;5013666;28;20068;-82
2022/01/23 06:31:33;;;;;;;35.35;21.60;;;4.50;81.30;;;;;;5015797;28;20334;-82
2022/01/23 06:34:00;;;;;;;40.45;24.27;;;4.50;81.50;;;;;;5016229;28;20069;-82
2022/01/23 06:36:26;;;;;;;36.00;24.02;;;4.60;81.10;;;;;;5028091;28;20486;-83
2022/01/23 06:38:51;;;;;;;37.08;22.13;;;4.60;81.60;;;;;;5013595;28;20056;-83
2022/01/23 06:41:17;;;;;;;41.75;25.15;;;4.60;81.30;;;;;;5016293;28;20401;-83
2022/01/23 06:43:43;;;;;;;43.67;26.92;;;4.60;81.20;;;;;;5016949;28;20038;-83
2022/01/23 06:46:08;;;;;;;49.17;29.70;;;4.60;81.00;;;;;;5012897;28;20037;-83
2022/01/23 06:48:34;;;;;;;39.03;24.27;;;4.50;81.10;;;;;;5025139;28;20343;-81
2022/01/23 06:51:00;;;;;;;33.75;21.13;;;4.50;82.20;;;;;;5007343;28;20057;-81
2022/01/23 06:53:26;;;;;;;40.00;24.63;;;4.60;81.70;;;;;;5027973;28;20045;-81
2022/01/23 06:55:51;;;;;;;41.08;24.70;;;4.70;80.50;;;;;;5026586;28;20037;-81
2022/01/23 06:58:17;;;;;;;36.97;22.45;;;4.70;80.50;;;;;;5030255;28;20425;-81
2022/01/23 07:00:42;;;;;;;36.03;22.30;;;4.70;80.60;;;;;;5026970;28;20029;-82
2022/01/23 07:03:10;;;;;;;37.92;23.98;;;4.70;80.70;;;;;;5008358;28;20037;-81
2022/01/23 07:05:36;;;;;;;31.95;20.83;;;4.70;80.50;;;;;;5026392;28;20034;-82
2022/01/23 07:08:02;;;;;;;29.27;19.27;;;4.70;80.70;;;;;;5027709;28;20031;-82
2022/01/23 07:10:28;;;;;;;31.02;19.60;;;4.80;80.50;;;;;;5025932;28;20180;-82
2022/01/23 07:12:54;;;;;;;33.10;19.27;;;4.80;80.30;;;;;;5010516;28;20153;-81
2022/01/23 07:15:19;;;;;;;32.08;21.50;;;4.90;80.00;;;;;;5028455;28;20041;-82
2022/01/23 07:17:45;;;;;;;31.20;19.98;;;4.90;79.80;;;;;;5026379;28;20042;-83
2022/01/23 07:20:11;;;;;;;34.13;21.58;;;4.90;79.60;;;;;;5025884;28;20091;-81
2022/01/23 07:22:37;;;;;;;33.55;22.08;;;5.00;79.50;;;;;;5027824;28;20108;-82
2022/01/23 07:25:06;;;;;;;36.63;25.88;;;5.10;79.20;;;;;;5029413;28;20073;-81
2022/01/23 07:27:37;;;;;;;38.83;25.70;;;5.00;78.90;;;;;;5027934;28;20040;-81
2022/01/23 07:30:07;;;;;;;31.20;20.33;;;5.00;78.90;;;;;;5028913;28;20037;-83
2022/01/23 07:32:33;;;;;;;30.75;20.10;;;5.00;79.50;;;;;;5025810;28;20405;-81
2022/01/23 07:34:58;;;;;;;34.17;22.63;;;5.00;79.00;;;;;;5022043;28;20097;-83
2022/01/23 07:37:24;;;;;;;27.90;18.98;;;5.00;78.80;;;;;;5006502;28;20129;-83
2022/01/23 07:39:50;;;;;;;31.65;20.45;;;5.10;79.10;;;;;;5012923;28;20385;-83
2022/01/23 07:42:15;;;;;;;34.92;22.55;;;5.10;78.60;;;;;;5011628;28;20033;-81
2022/01/23 07:44:41;;;;;;;34.42;22.10;;;5.20;78.40;;;;;;5028111;28;20497;-82
2022/01/23 07:47:07;;;;;;;30.90;20.55;;;5.20;78.30;;;;;;5027948;28;20033;-81
2022/01/23 07:49:33;;;;;;;27.02;17.83;;;5.20;78.50;;;;;;5024132;28;20541;-82
2022/01/23 07:52:01;;;;;;;31.75;21.23;;;5.30;78.70;;;;;;5026823;28;20037;-81
2022/01/23 07:54:27;;;;;;;36.92;24.80;;;5.20;78.00;;;;;;5026511;28;20482;-82
2022/01/23 07:56:53;;;;;;;40.03;26.33;;;5.10;78.10;;;;;;5009943;28;20034;-82
2022/01/23 07:59:18;;;;;;;36.75;23.38;;;5.00;78.40;;;;;;5029271;28;20045;-81
2022/01/23 08:01:44;;;;;;;37.35;23.95;;;4.80;78.90;;;;;;5024016;28;20374;-82
2022/01/23 08:04:10;;;;;;;37.92;25.88;;;4.90;78.70;;;;;;5007156;28;20033;-82
2022/01/23 08:06:45;;;;;;;39.30;25.52;;;4.80;79.00;;;;;;5029414;28;20115;-81
2022/01/23 08:09:12;;;;;;;35.63;24.00;;;4.70;78.90;;;;;;5006362;28;20045;-82
2022/01/23 08:11:38;;;;;;;28.10;18.50;;;4.70;79.30;;;;;;5006817;28;20513;-81
2022/01/23 08:14:04;;;;;;;24.15;17.10;;;4.70;79.20;;;;;;5022586;28;20054;-81
2022/01/23 08:16:29;;;;;;;28.83;18.85;;;4.90;78.90;;;;;;5004078;28;20033;-81
2022/01/23 08:18:55;;;;;;;32.33;21.40;;;5.00;78.50;;;;;;5020466;28;20050;-81
2022/01/23 08:21:21;;;;;;;32.20;21.38;;;5.10;78.00;;;;;;5029067;28;21056;-80
2022/01/23 08:23:47;;;;;;;27.17;17.55;;;5.10;77.90;;;;;;5021322;28;20092;-80
2022/01/23 08:26:13;;;;;;;34.78;21.77;;;5.10;78.30;;;;;;5009764;28;20083;-80
2022/01/23 08:28:38;;;;;;;33.05;18.60;;;5.20;77.90;;;;;;5020986;28;20076;-80
2022/01/23 08:31:04;;;;;;;30.95;19.15;;;5.20;78.40;;;;;;5021258;28;20124;-81
2022/01/23 08:33:30;;;;;;;22.33;15.38;;;5.30;78.00;;;;;;5023794;28;20045;-81
2022/01/23 08:35:57;;;;;;;21.52;14.98;;;5.50;78.50;;;;;;5024860;28;20034;-81
2022/01/23 08:38:24;;;;;;;19.48;14.00;;;5.60;78.50;;;;;;5008523;28;20053;-81
2022/01/23 08:41:49;;;;;;;32.70;19.38;;;5.80;77.80;;;;;;5004582;28;20517;-81
2022/01/23 08:43:35;;;;;;;22.75;15.40;;;6.00;77.30;;;;;;5023369;28;20099;-82
2022/01/23 08:46:02;;;;;;;24.25;14.98;;;6.10;77.20;;;;;;5005757;28;20029;-82
2022/01/23 08:48:28;;;;;;;21.45;14.93;;;6.20;77.10;;;;;;5003795;28;20047;-83
2022/01/23 08:50:54;;;;;;;32.88;19.85;;;6.40;77.00;;;;;;4999456;28;20048;-84
2022/01/23 08:53:20;;;;;;;23.30;16.48;;;6.50;76.50;;;;;;5004277;28;20046;-84
2022/01/23 08:55:48;;;;;;;25.92;17.05;;;6.60;77.00;;;;;;5023072;28;20501;-86
2022/01/23 08:58:14;;;;;;;37.58;24.80;;;6.60;76.80;;;;;;5026679;28;20111;-88
2022/01/23 09:00:40;;;;;;;32.80;20.95;;;6.80;76.70;;;;;;5023828;28;20053;-82
2022/01/23 09:03:05;;;;;;;26.08;17.95;;;6.80;76.90;;;;;;5022654;28;20042;-84
2022/01/23 09:05:31;;;;;;;27.48;18.25;;;6.80;77.20;;;;;;5005432;28;20124;-84
2022/01/23 09:07:57;;;;;;;30.58;20.17;;;6.90;77.30;;;;;;5005397;28;20087;-84
2022/01/23 09:10:28;;;;;;;29.55;19.00;;;6.90;76.90;;;;;;5022686;28;20440;-89
2022/01/23 09:13:05;;;;;;;26.85;18.45;;;7.00;77.00;;;;;;5004438;28;20336;-89
2022/01/23 09:15:32;;;;;;;29.73;19.23;;;7.20;78.30;;;;;;5009559;28;20029;-84
2022/01/23 09:17:59;;;;;;;28.55;19.45;;;7.30;76.90;;;;;;5008426;28;20103;-84
2022/01/23 09:20:25;;;;;;;34.75;22.05;;;7.40;76.80;;;;;;5007181;28;20045;-85
2022/01/23 09:22:51;;;;;;;35.22;24.48;;;7.40;76.10;;;;;;5006321;28;20046;-85
2022/01/23 09:25:17;;;;;;;32.70;21.00;;;7.40;76.10;;;;;;5033027;28;20037;-83
2022/01/23 09:27:43;;;;;;;32.50;22.05;;;7.50;76.30;;;;;;5029379;28;20045;-84
2022/01/23 09:30:17;;;;;;;26.60;18.67;;;7.60;76.10;;;;;;5034346;28;20028;-83
2022/01/23 09:32:44;;;;;;;30.42;19.08;;;7.60;76.20;;;;;;5007146;28;20093;-84
2022/01/23 09:35:11;;;;;;;29.90;20.52;;;7.80;75.90;;;;;;5031837;28;20029;-85
2022/01/23 09:37:37;;;;;;;33.85;23.20;;;7.80;75.20;;;;;;5015119;28;20053;-91
2022/01/23 09:40:05;;;;;;;36.25;22.23;;;7.80;75.30;;;;;;5035893;28;20026;-91
2022/01/23 09:42:41;;;;;;;37.17;24.63;;;7.80;75.30;;;;;;5018273;28;20107;-87
2022/01/23 09:45:09;;;;;;;40.58;27.60;;;7.70;74.70;;;;;;5029623;28;20113;-84
2022/01/23 09:47:37;;;;;;;30.52;22.05;;;7.50;75.50;;;;;;5014995;28;20048;-85
2022/01/23 09:50:05;;;;;;;33.45;23.02;;;7.60;76.10;;;;;;5025163;28;20049;-84
2022/01/23 09:52:34;;;;;;;32.30;21.00;;;7.70;75.30;;;;;;5026680;28;20183;-85
2022/01/23 09:55:07;;;;;;;45.85;29.83;;;7.70;75.00;;;;;;5016440;28;20462;-86
2022/01/23 09:57:36;;;;;;;37.08;26.45;;;7.50;74.50;;;;;;5003517;28;20512;-85
2022/01/23 10:00:06;;;;;;;33.97;24.02;;;7.50;75.50;;;;;;5023721;28;20540;-86
2022/01/23 10:02:32;;;;;;;26.30;17.27;;;7.30;76.50;;;;;;5011819;28;20080;-89
2022/01/23 10:04:58;;;;;;;32.15;21.42;;;7.40;76.80;;;;;;5018147;28;20107;-90
2022/01/23 10:07:24;;;;;;;26.98;18.92;;;7.50;75.70;;;;;;5012426;28;20045;-86
2022/01/23 10:09:56;;;;;;;37.15;26.70;;;7.70;75.40;;;;;;5015631;28;20041;-82
2022/01/23 10:12:26;;;;;;;38.22;24.30;;;7.80;74.60;;;;;;5038405;28;20037;-80
2022/01/23 10:14:56;;;;;;;24.57;18.53;;;7.70;75.40;;;;;;5017059;28;20121;-81
2022/01/23 10:17:22;;;;;;;25.00;18.75;;;7.80;75.30;;;;;;5034424;28;20513;-81
2022/01/23 10:19:48;;;;;;;33.50;22.30;;;7.70;75.40;;;;;;5014834;28;20053;-81
2022/01/23 10:22:15;;;;;;;26.63;19.05;;;7.90;75.10;;;;;;5027932;28;20033;-81
2022/01/23 10:24:41;;;;;;;24.80;17.27;;;8.00;74.80;;;;;;5030335;28;20393;-83
2022/01/23 10:27:07;;;;;;;28.33;17.77;;;8.20;74.80;;;;;;5033728;28;20370;-81
2022/01/23 10:29:36;;;;;;;23.02;15.70;;;8.30;74.20;;;;;;5034027;28;20168;-80
2022/01/23 10:32:12;;;;;;;36.85;26.20;;;8.50;73.80;;;;;;5031026;28;20026;-80
2022/01/23 10:34:57;;;;;;;30.30;22.52;;;8.70;72.80;;;;;;5008933;28;20390;-82
2022/01/23 10:37:38;;;;;;;34.78;24.67;;;8.60;73.50;;;;;;5008517;28;20066;-82
2022/01/23 10:40:22;;;;;;;30.30;22.15;;;8.50;73.00;;;;;;5023661;28;20038;-81
2022/01/23 10:50:51;;;;;;;;;;;8.80;73.40;;;;;;5028683;28;20037;-80
2022/01/23 10:53:17;;;;;;;27.52;18.30;;;8.70;72.30;;;;;;5022593;28;19990;-81
2022/01/23 10:55:47;;;;;;;27.13;17.27;;;8.90;72.60;;;;;;5023197;28;20485;-80
2022/01/23 10:58:21;;;;;;;24.95;16.20;;;9.10;71.90;;;;;;5024873;28;20028;-81
2022/01/23 11:00:46;;;;;;;20.98;14.73;;;9.30;71.60;;;;;;5024258;28;21503;-81
2022/01/23 11:03:17;;;;;;;22.65;15.73;;;9.50;71.00;;;;;;5025525;28;20036;-80
2022/01/23 11:05:44;;;;;;;28.52;19.05;;;9.80;70.80;;;;;;5022374;28;20034;-82
2022/01/23 11:08:22;;;;;;;25.85;17.85;;;10.00;69.50;;;;;;5026299;28;20038;-85
2022/01/23 11:11:03;;;;;;;26.15;18.40;;;10.30;68.80;;;;;;5010525;28;20045;-85
2022/01/23 11:19:39;;;;;;;27.10;17.45;;;11.00;66.30;;;;;;5024004;28;20136;-83
2022/01/23 11:22:06;;;;;;;25.23;17.88;;;11.30;66.70;;;;;;5008577;28;20075;-86
2022/01/23 11:24:37;;;;;;;35.80;25.30;;;11.40;64.80;;;;;;5011121;28;20041;-86
2022/01/23 11:27:07;;;;;;;28.08;21.08;;;11.40;63.60;;;;;;5025039;28;20038;-83
2022/01/23 11:29:32;;;;;;;30.42;22.13;;;11.60;64.90;;;;;;5011372;28;20426;-82
2022/01/23 11:31:59;;;;;;;36.28;24.42;;;11.70;63.80;;;;;;5022270;28;20116;-84
2022/01/23 11:34:31;;;;;;;38.97;25.83;;;11.90;65.00;;;;;;5024623;28;20128;-82
2022/01/23 11:36:57;;;;;;;31.15;21.65;;;12.10;62.70;;;;;;5026185;28;20050;-82
2022/01/23 11:53:58;;;;;;;32.05;23.83;;;13.20;60.70;;;;;;5027799;28;20037;-84
2022/01/23 11:56:35;;;;;;;33.30;23.77;;;13.50;62.10;;;;;;5029732;28;20095;-84
2022/01/23 11:59:12;;;;;;;35.75;25.13;;;13.60;58.60;;;;;;5011155;28;20048;-84
2022/01/23 12:01:39;;;;;;;41.78;30.40;;;14.00;57.20;;;;;;5023693;28;20033;-84
2022/01/23 12:04:09;;;;;;;35.70;25.58;;;14.10;55.60;;;;;;5031924;28;20045;-85
2022/01/23 12:06:42;;;;;;;30.05;22.27;;;13.80;56.20;;;;;;5032609;28;20029;-85
2022/01/23 12:09:16;;;;;;;25.10;19.48;;;14.10;58.10;;;;;;5026342;28;20038;-84
2022/01/23 12:12:07;;;;;;;26.60;19.88;;;14.90;55.90;;;;;;5031968;28;20419;-85
2022/01/23 12:17:20;;;;;;;23.55;18.20;;;16.40;51.60;;;;;;5024074;28;20450;-83
2022/01/23 12:19:51;;;;;;;24.13;18.23;;;16.90;50.60;;;;;;5031088;28;20049;-84
2022/01/23 12:22:37;;;;;;;25.90;19.05;;;17.30;49.40;;;;;;5032773;28;20394;-85
2022/01/23 12:25:22;;;;;;;31.90;22.90;;;17.40;48.30;;;;;;5026769;28;20043;-86
2022/01/23 12:28:08;;;;;;;26.92;21.50;;;17.40;46.50;;;;;;5023081;28;20045;-84
2022/01/23 12:30:35;;;;;;;32.92;24.45;;;17.50;47.40;;;;;;5032413;28;20053;-86
2022/01/23 12:33:28;;;;;;;32.88;25.15;;;17.60;46.10;;;;;;5027679;28;20470;-87
2022/01/23 12:35:57;;;;;;;46.72;35.83;;;16.90;48.00;;;;;;5030147;28;20347;-84
2022/01/23 12:38:40;;;;;;;34.10;24.48;;;16.40;49.00;;;;;;5014204;28;20474;-84
2022/01/23 12:41:35;;;;;;;25.88;20.13;;;16.90;48.80;;;;;;5022913;28;20121;-85
2022/01/23 12:44:30;;;;;;;27.80;19.00;;;17.30;47.90;;;;;;5022695;28;20044;-82
2022/01/23 12:47:04;;;;;;;32.83;24.00;;;17.70;47.60;;;;;;5025849;28;20048;-82
2022/01/23 12:49:36;;;;;;;31.75;23.98;;;17.30;47.60;;;;;;5005354;28;20369;-83
2022/01/23 12:52:06;;;;;;;36.78;26.98;;;17.10;46.70;;;;;;5011476;28;20121;-81
2022/01/23 12:54:34;;;;;;;24.23;18.65;;;16.00;49.20;;;;;;5031032;28;20036;-82
2022/01/23 12:57:12;;;;;;;36.20;25.50;;;15.90;50.80;;;;;;5016547;28;20045;-81
2022/01/23 12:59:39;;;;;;;33.45;23.83;;;15.90;50.00;;;;;;5006463;28;20133;-81
2022/01/23 13:02:16;;;;;;;26.58;20.08;;;16.00;50.10;;;;;;5006528;28;20411;-81
2022/01/23 13:04:47;;;;;;;29.20;21.70;;;16.20;50.70;;;;;;5009412;28;20048;-81
2022/01/23 13:07:23;;;;;;;32.15;23.40;;;16.40;49.70;;;;;;5023424;28;20096;-81
2022/01/23 13:09:54;;;;;;;26.67;20.05;;;16.60;49.20;;;;;;5010545;28;20037;-81
2022/01/23 13:31:59;;;;;;;32.67;23.55;;;16.30;50.00;;;;;;5031641;28;20095;-81
2022/01/23 13:34:41;;;;;;;29.33;20.33;;;15.80;50.50;;;;;;5033777;28;20033;-80
2022/01/23 13:37:15;;;;;;;23.90;16.58;;;15.50;52.00;;;;;;5031814;28;20037;-80
2022/01/23 13:40:05;;;;;;;20.20;15.38;;;15.40;53.10;;;;;;5032863;28;20092;-80
2022/01/23 13:53:49;;;;;;;27.35;19.27;;;13.60;57.00;;;;;;5030593;28;20480;-81
2022/01/23 13:59:32;;;;;;;28.75;20.17;;;13.10;58.80;;;;;;5024030;28;20060;-81
2022/01/23 14:04:38;;;;;;;27.42;19.08;;;12.90;59.10;;;;;;5028690;28;20044;-81
2022/01/23 14:07:04;;;;;;;21.55;16.05;;;12.90;59.50;;;;;;5027604;28;20179;-81
2022/01/23 14:09:43;;;;;;;22.92;16.40;;;12.90;59.60;;;;;;5029616;28;20025;-80
2022/01/23 14:12:12;;;;;;;21.15;14.20;;;12.80;59.90;;;;;;5022555;28;20034;-81
2022/01/23 14:15:03;;;;;;;21.15;14.55;;;12.80;60.30;;;;;;5023842;28;20701;-81
2022/01/23 14:17:32;;;;;;;20.00;15.10;;;12.80;60.80;;;;;;5005655;28;20084;-81
2022/01/23 14:20:17;;;;;;;20.63;13.75;;;12.80;60.10;;;;;;5003526;28;20038;-81
2022/01/23 14:22:46;;;;;;;24.02;14.80;;;12.80;60.80;;;;;;5008262;28;20045;-81
2022/01/23 14:25:19;;;;;;;23.70;16.23;;;12.80;60.70;;;;;;5008795;28;20037;-81
2022/01/23 14:28:13;;;;;;;24.52;15.13;;;12.70;60.70;;;;;;5011418;28;20490;-80
2022/01/23 14:30:54;;;;;;;22.98;15.27;;;12.70;60.90;;;;;;5033627;28;20033;-80
2022/01/23 14:33:27;;;;;;;22.27;15.60;;;12.70;60.80;;;;;;5026622;28;20037;-80
2022/01/23 14:35:53;;;;;;;20.77;14.68;;;12.60;60.90;;;;;;5026036;28;20046;-81
2022/01/23 14:38:23;;;;;;;21.95;14.95;;;12.60;61.00;;;;;;5031395;28;20529;-81
2022/01/23 14:40:58;;;;;;;20.50;14.88;;;12.50;61.30;;;;;;5024160;28;20042;-81
2022/01/23 14:43:50;;;;;;;20.05;14.27;;;12.50;61.40;;;;;;5006512;28;20495;-81
2022/01/23 14:46:16;;;;;;;21.00;14.93;;;12.50;61.90;;;;;;5004466;28;20042;-81
2022/01/23 14:48:47;;;;;;;24.20;15.20;;;12.50;61.90;;;;;;5025822;28;20037;-81
2022/01/23 14:51:17;;;;;;;;;;;12.40;62.00;;;;;;5010816;28;20432;-81
2022/01/23 14:53:43;;;;;;;24.77;18.13;;;12.40;62.20;;;;;;5029304;28;19909;-82
2022/01/23 14:56:11;;;;;;;25.08;17.33;;;12.30;62.70;;;;;;5032765;28;20036;-81
2022/01/23 14:58:37;;;;;;;28.55;19.33;;;12.20;62.70;;;;;;5012897;28;20041;-82
2022/01/23 15:01:07;;;;;;;23.95;16.52;;;12.10;63.30;;;;;;5029306;28;20033;-81
2022/01/23 15:03:33;;;;;;;31.02;18.95;;;12.00;63.40;;;;;;5015552;28;20042;-82
2022/01/23 15:06:02;;;;;;;24.75;16.60;;;12.00;63.50;;;;;;5033324;28;20036;-82
2022/01/23 15:08:29;;;;;;;23.00;16.33;;;12.00;63.70;;;;;;5019311;28;20087;-81
2022/01/23 15:11:00;;;;;;;24.85;16.58;;;11.90;63.60;;;;;;5032763;28;20084;-82
2022/01/23 15:13:28;;;;;;;23.23;15.65;;;11.90;63.60;;;;;;5013225;28;20048;-83
2022/01/23 15:16:05;;;;;;;24.73;15.63;;;11.90;64.00;;;;;;5024296;28;20038;-83
2022/01/23 15:18:35;;;;;;;51.13;16.00;;;11.90;64.90;;;;;;5006295;28;20474;-82
2022/01/23 15:21:01;;;;;;;24.17;15.35;;;11.90;64.70;;;;;;5023691;28;20120;-82
2022/01/23 15:23:27;;;;;;;25.83;14.57;;;11.90;64.60;;;;;;5019676;28;20196;-81
2022/01/23 15:25:53;;;;;;;21.55;14.73;;;11.80;64.40;;;;;;5009110;28;20092;-82
2022/01/23 15:28:19;;;;;;;23.92;15.07;;;11.80;65.00;;;;;;5007971;28;20033;-84
2022/01/23 15:30:45;;;;;;;24.33;16.27;;;11.80;65.00;;;;;;5027479;28;20036;-86
2022/01/23 15:33:11;;;;;;;20.45;13.45;;;11.70;65.50;;;;;;5024857;28;20041;-83
2022/01/23 15:35:47;;;;;;;23.13;15.85;;;11.70;66.30;;;;;;5021622;28;20040;-85
2022/01/23 15:38:16;;;;;;;25.65;15.35;;;11.70;66.10;;;;;;5008881;28;20184;-85
2022/01/23 15:40:43;;;;;;;21.07;14.67;;;11.60;66.10;;;;;;5025040;28;20038;-85
2022/01/23 15:43:09;;;;;;;19.42;14.27;;;11.50;67.50;;;;;;5006064;28;20283;-85
2022/01/23 15:45:36;;;;;;;21.63;14.68;;;11.40;67.10;;;;;;5006070;28;20170;-85
2022/01/23 15:48:04;;;;;;;22.42;15.48;;;11.30;67.30;;;;;;5001838;28;20507;-85
2022/01/23 15:50:30;;;;;;;22.55;15.07;;;11.30;67.60;;;;;;5027455;28;20062;-85
2022/01/23 15:52:56;;;;;;;20.58;15.10;;;11.20;68.40;;;;;;5026602;28;20036;-86
2022/01/23 15:55:24;;;;;;;22.95;15.13;;;11.20;68.60;;;;;;5015036;28;20041;-86
2022/01/23 15:57:52;;;;;;;21.35;14.63;;;11.10;69.30;;;;;;5030144;28;20048;-85
2022/01/23 16:00:19;;;;;;;19.88;14.52;;;11.00;69.30;;;;;;5030817;28;20120;-86
2022/01/23 22:34:04;;;;;;;110.15;65.20;;;5.70;85.30;;;;;;5101898;23;20582;-96
2022/01/23 22:36:30;;;;;;;105.00;64.78;;;5.60;85.80;;;;;;5006790;28;20426;-95
2022/01/23 22:38:56;;;;;;;102.35;63.40;;;5.50;86.10;;;;;;5016422;28;20485;-95
2022/01/23 22:41:25;;;;;;;110.15;66.30;;;5.60;85.50;;;;;;5014298;28;20041;-93
2022/01/23 22:44:14;;;;;;;101.57;62.78;;;5.60;86.20;;;;;;5013532;28;20060;-94
2022/01/23 22:46:37;;;;;;;85.13;49.92;;;5.50;86.30;;;;;;5027395;28;20026;-94
2022/01/23 22:49:10;;;;;;;77.68;48.30;;;5.70;85.50;;;;;;5006936;28;20044;-93
2022/01/23 22:51:38;;;;;;;73.38;46.75;;;5.80;84.60;;;;;;5015590;28;20033;-94
2022/01/23 22:54:05;;;;;;;82.45;51.05;;;5.90;84.10;;;;;;5016370;28;20045;-95
2022/01/23 22:56:31;;;;;;;83.72;52.55;;;6.00;84.00;;;;;;5035370;28;20029;-95
2022/01/23 22:58:56;;;;;;;102.57;65.05;;;6.00;83.30;;;;;;5015526;28;20045;-94
2022/01/23 23:01:22;;;;;;;74.75;46.78;;;5.90;84.50;;;;;;5006429;28;20038;-94